Terminal Aerodrome Forecast
Issued by NWS

Home | Current Version | Previous Version | Text Only | Print | Product List | Glossary On
Versions: 1 2 3 4 5 6 7 8 9 10 11 12 13 14 15 16 17 18 19 20
000
FTUS45 KTFX 180526
TAFCTB
TAF
KCTB 180526Z 1806/1906 25018G25KT P6SM SCT070 BKN130
     FM181700 30017G27KT 3/4SM -SN BR SCT020 OVC040
     FM190300 04009KT 3/4SM -SN BR SCT010 OVC025=

USA.gov is the U.S. government's official web portal to all federal, state and local government web resources and services.